Time;durP1;ratioP1;P1;durP2;ratioP2;P2;SDS_P1;SDS_P2;PMS_P1;PMS_P2;Temp;Humidity;BMP_temperature;BMP_pressure;BME280_temperature;BME280_humidity;BME280_pressure;Samples;Min_cycle;Max_cycle;Signal;HPM_P1;HPM_P2
2022/07/03 00:00:46;;;;;;;10.83;4.80;;;;;;;17.36;100.00;100677.28;4199870;28;20295;-66
2022/07/03 00:03:12;;;;;;;10.13;5.17;;;;;;;17.38;100.00;100669.06;4179945;28;20312;-63
2022/07/03 00:05:39;;;;;;;7.97;5.17;;;;;;;17.38;100.00;100674.44;4192839;28;20598;-64
2022/07/03 00:08:06;;;;;;;8.67;5.10;;;;;;;17.18;100.00;100669.56;4185238;28;20236;-62
2022/07/03 00:10:32;;;;;;;11.13;4.93;;;;;;;17.11;100.00;100657.88;4202674;28;20300;-65
2022/07/03 00:12:59;;;;;;;9.17;4.60;;;;;;;17.15;100.00;100659.19;4178988;28;21693;-66
2022/07/03 00:15:25;;;;;;;5.47;4.57;;;;;;;17.07;100.00;100656.56;4184432;28;20307;-62
2022/07/03 00:17:52;;;;;;;11.93;4.73;;;;;;;17.07;100.00;100662.78;4176136;28;20598;-64
2022/07/03 00:20:19;;;;;;;9.37;4.20;;;;;;;17.11;100.00;100657.88;4189720;28;22109;-64
2022/07/03 00:22:46;;;;;;;7.00;4.60;;;;;;;17.05;100.00;100658.59;4182307;28;21832;-63
2022/07/03 00:25:13;;;;;;;8.60;4.53;;;;;;;17.05;100.00;100658.59;4175121;28;20236;-65
2022/07/03 00:27:40;;;;;;;6.80;4.10;;;;;;;17.10;100.00;100661.59;4190842;28;20229;-63
2022/07/03 00:30:10;;;;;;;7.53;4.90;;;;;;;17.13;100.00;100661.22;4185577;28;20242;-66
2022/07/03 00:32:41;;;;;;;10.83;5.23;;;;;;;17.02;100.00;100658.94;4186536;28;20240;-64
2022/07/03 00:35:08;;;;;;;8.53;5.43;;;;;;;16.91;100.00;100656.72;4193244;28;20236;-64
2022/07/03 00:37:35;;;;;;;12.90;5.37;;;;;;;16.94;100.00;100656.34;4175840;28;20279;-65
2022/07/03 00:40:03;;;;;;;8.23;5.07;;;;;;;16.96;100.00;100659.69;4182033;28;20561;-64
2022/07/03 00:42:30;;;;;;;9.87;5.57;;;;;;;16.96;100.00;100662.38;4184533;28;21925;-64
2022/07/03 00:44:57;;;;;;;13.00;5.97;;;;;;;16.93;100.00;100657.34;4192640;28;20240;-63
2022/07/03 00:47:25;;;;;;;10.20;5.43;;;;;;;16.93;100.00;100658.22;4184135;28;20249;-65
2022/07/03 00:49:54;;;;;;;13.10;5.37;;;;;;;16.93;100.00;100654.66;4182272;28;20248;-64
2022/07/03 00:52:22;;;;;;;10.67;5.13;;;;;;;16.90;100.00;100655.03;4189805;28;20300;-64
2022/07/03 00:54:53;;;;;;;8.43;5.00;;;;;;;16.84;100.00;100652.06;4189241;28;20415;-62
2022/07/03 00:57:22;;;;;;;7.83;4.90;;;;;;;16.91;100.00;100654.03;4189258;28;20241;-64
2022/07/03 00:59:49;;;;;;;9.70;5.37;;;;;;;16.91;100.00;100648.66;4202195;28;20308;-63
2022/07/03 01:02:34;;;;;;;12.67;4.97;;;;;;;16.91;100.00;100646.78;4200281;28;20668;-64
2022/07/03 01:05:27;;;;;;;9.57;5.67;;;;;;;16.98;100.00;100644.22;4199979;28;20477;-65
2022/07/03 01:08:18;;;;;;;10.77;6.40;;;;;;;16.91;100.00;100640.59;4197213;28;20293;-64
2022/07/03 01:10:59;;;;;;;12.00;6.43;;;;;;;16.83;100.00;100636.97;4194735;28;20319;-64
2022/07/03 01:13:58;;;;;;;11.50;6.50;;;;;;;16.83;100.00;100633.41;4191803;28;20240;-64
2022/07/03 01:16:37;;;;;;;10.97;5.80;;;;;;;16.75;100.00;100628.91;4178427;28;20614;-63
2022/07/03 01:19:41;;;;;;;10.30;6.27;;;;;;;16.61;100.00;100630.53;4181940;28;20291;-64
2022/07/03 01:22:30;;;;;;;10.10;5.97;;;;;;;16.63;100.00;100625.81;4181839;28;20310;-66
2022/07/03 01:25:15;;;;;;;13.07;5.87;;;;;;;16.59;100.00;100632.56;4187787;28;21152;-62
2022/07/03 01:28:01;;;;;;;11.97;6.13;;;;;;;16.65;100.00;100631.03;4189947;28;21847;-63
2022/07/03 01:30:30;;;;;;;8.63;5.80;;;;;;;16.50;100.00;100628.25;4202529;28;20236;-63
2022/07/03 01:33:08;;;;;;;11.83;6.13;;;;;;;16.51;100.00;100624.56;4183710;28;20668;-65
2022/07/03 01:35:35;;;;;;;15.10;6.37;;;;;;;16.38;100.00;100618.94;4187196;28;20229;-63
2022/07/03 01:38:07;;;;;;;13.73;6.77;;;;;;;16.32;100.00;100615.16;4185206;28;20935;-63
2022/07/03 01:40:36;;;;;;;9.27;6.47;;;;;;;16.32;100.00;100612.47;4187914;28;20242;-65
2022/07/03 01:43:04;;;;;;;13.10;7.07;;;;;;;16.30;100.00;100614.47;4206540;28;20227;-65
2022/07/03 01:45:34;;;;;;;13.17;6.37;;;;;;;16.30;100.00;100602.91;4189285;28;20229;-64
2022/07/03 01:48:02;;;;;;;13.67;6.27;;;;;;;16.25;100.00;100611.50;4187444;28;20233;-65
2022/07/03 01:50:28;;;;;;;11.03;6.80;;;;;;;16.11;100.00;100607.72;4180354;28;21129;-64
2022/07/03 01:52:56;;;;;;;11.90;6.07;;;;;;;16.02;100.00;100612.28;4192333;28;20236;-64
2022/07/03 01:55:23;;;;;;;12.07;6.70;;;;;;;15.96;100.00;100599.56;4176537;28;20234;-63
2022/07/03 01:57:50;;;;;;;9.30;6.23;;;;;;;15.92;100.00;100609.00;4191434;28;20235;-64
2022/07/03 02:00:20;;;;;;;14.80;6.70;;;;;;;15.96;100.00;100599.56;4197692;28;20232;-64
2022/07/03 02:02:59;;;;;;;11.80;6.57;;;;;;;15.97;100.00;100605.78;4205651;28;20233;-64
2022/07/03 02:05:31;;;;;;;9.73;6.30;;;;;;;15.88;100.00;100599.63;4204245;28;20232;-64
2022/07/03 02:08:34;;;;;;;14.67;6.60;;;;;;;15.83;100.00;100592.09;4204674;28;20654;-62
2022/07/03 02:11:20;;;;;;;9.43;6.43;;;;;;;15.87;100.00;100597.09;4203168;28;21211;-64
2022/07/03 02:13:50;;;;;;;11.13;6.83;;;;;;;15.91;100.00;100604.63;4203896;28;21200;-64
2022/07/03 02:16:19;;;;;;;10.20;6.77;;;;;;;15.86;100.00;100598.97;4194318;28;20233;-63
2022/07/03 02:18:57;;;;;;;8.80;6.57;;;;;;;15.82;100.00;100603.81;4203802;28;20232;-65
2022/07/03 02:21:29;;;;;;;13.13;5.80;;;;;;;15.87;100.00;100600.63;4196984;28;20233;-66
2022/07/03 02:24:21;;;;;;;9.43;5.87;;;;;;;15.80;100.00;100605.88;4193693;28;20245;-64
2022/07/03 02:26:59;;;;;;;7.03;5.23;;;;;;;15.82;100.00;100603.81;4214338;28;20229;-65
2022/07/03 02:29:31;;;;;;;12.77;5.60;;;;;;;15.76;100.00;100611.75;4197513;28;21614;-64
2022/07/03 02:32:07;;;;;;;10.43;5.33;;;;;;;15.73;100.00;100593.31;4200202;28;20248;-40
2022/07/03 02:34:35;;;;;;;9.13;4.67;;;;;;;15.82;100.00;100601.13;4211413;28;21855;-40
2022/07/03 02:37:14;;;;;;;10.47;4.50;;;;;;;15.87;100.00;100600.63;4220938;28;20548;-41
2022/07/03 02:39:45;;;;;;;8.20;4.07;;;;;;;15.89;100.00;100603.13;4202973;28;20502;-41
2022/07/03 02:42:22;;;;;;;7.10;3.57;;;;;;;15.91;100.00;100607.31;4214735;28;22801;-42
2022/07/03 02:44:51;;;;;;;5.57;3.50;;;;;;;15.96;100.00;100607.63;4225188;28;20622;-41
2022/07/03 02:47:30;;;;;;;5.70;3.37;;;;;;;16.08;100.00;100607.22;4204305;28;20241;-40
2022/07/03 02:50:04;;;;;;;5.63;3.27;;;;;;;16.13;100.00;100610.22;4198340;28;20338;-40
2022/07/03 02:52:40;;;;;;;5.83;2.87;;;;;;;16.18;100.00;100607.84;4234802;28;20232;-41
2022/07/03 02:55:35;;;;;;;7.93;3.17;;;;;;;16.22;100.00;100601.09;4229097;28;20239;-40
2022/07/03 02:58:26;;;;;;;7.40;2.73;;;;;;;16.25;99.72;100608.81;4230785;28;21754;-41
2022/07/03 03:01:30;;;;;;;5.10;2.50;;;;;;;16.34;99.18;100606.88;4218835;28;20228;-41
2022/07/03 03:04:22;;;;;;;9.63;3.00;;;;;;;16.36;98.47;100605.69;4202611;28;20371;-41
2022/07/03 03:06:55;;;;;;;8.33;2.97;;;;;;;16.40;96.56;100607.00;4229592;28;21750;-42
2022/07/03 03:09:34;;;;;;;11.07;2.70;;;;;;;16.45;95.90;100609.16;4218809;28;20232;-40
2022/07/03 03:12:01;;;;;;;6.40;2.47;;;;;;;16.49;95.65;100597.06;4211052;28;20296;-39
2022/07/03 03:14:40;;;;;;;5.63;2.30;;;;;;;16.54;95.31;100604.56;4219078;28;22808;-41
2022/07/03 03:17:07;;;;;;;5.67;2.10;;;;;;;16.62;95.21;100601.81;4221484;28;20246;-41
2022/07/03 03:19:41;;;;;;;7.07;2.43;;;;;;;16.72;95.20;100599.72;4197852;28;20910;-40
2022/07/03 03:22:27;;;;;;;6.17;2.43;;;;;;;16.85;93.22;100594.56;4200586;28;20275;-40
2022/07/03 03:24:54;;;;;;;5.37;2.33;;;;;;;16.86;92.33;100590.88;4218895;28;20715;-41
2022/07/03 03:27:21;;;;;;;7.03;2.30;;;;;;;16.82;91.25;100592.25;4203355;28;20348;-42
2022/07/03 03:29:48;;;;;;;9.30;2.40;;;;;;;16.90;92.57;100590.50;4183458;28;20311;-40
2022/07/03 03:32:16;;;;;;;3.37;1.90;;;;;;;17.07;91.24;100590.19;4202285;28;21695;-41
2022/07/03 03:34:43;;;;;;;9.93;2.40;;;;;;;17.15;90.30;100591.13;4194836;28;20236;-40
2022/07/03 03:37:09;;;;;;;5.93;2.40;;;;;;;17.16;89.36;100590.94;4194650;28;23034;-41
2022/07/03 03:39:36;;;;;;;6.77;2.30;;;;;;;17.27;89.63;100586.94;4199280;28;20836;-40
2022/07/03 03:42:03;;;;;;;10.57;2.10;;;;;;;17.38;88.61;100585.66;4194715;28;21395;-63
2022/07/03 03:44:30;;;;;;;10.90;2.50;;;;;;;17.38;88.47;100585.66;4197156;28;20236;-64
2022/07/03 03:46:57;;;;;;;7.17;2.37;;;;;;;17.41;87.83;100593.34;4200957;28;21575;-64
2022/07/03 03:49:23;;;;;;;7.03;2.20;;;;;;;17.43;86.76;100591.31;4205094;28;22046;-65
2022/07/03 03:51:50;;;;;;;7.70;2.47;;;;;;;17.29;86.78;100574.97;4198522;28;23323;-63
2022/07/03 03:54:16;;;;;;;7.53;2.03;;;;;;;17.30;87.46;100576.66;4198887;28;20235;-64
2022/07/03 03:56:43;;;;;;;4.70;1.87;;;;;;;17.27;87.75;100579.69;4197313;28;21050;-63
2022/07/03 03:59:09;;;;;;;4.00;1.80;;;;;;;17.22;87.83;100574.06;4196497;28;20248;-66
2022/07/03 04:01:36;;;;;;;7.53;2.10;;;;;;;17.27;86.89;100582.38;4181456;28;20246;-66
2022/07/03 04:04:03;;;;;;;5.67;1.87;;;;;;;17.27;87.37;100577.00;4195659;28;20243;-63
2022/07/03 04:06:29;;;;;;;4.37;1.50;;;;;;;17.21;86.38;100577.78;4191465;28;20301;-66
2022/07/03 04:08:56;;;;;;;10.30;1.97;;;;;;;17.27;86.22;100582.38;4187485;28;21008;-64
2022/07/03 04:11:22;;;;;;;5.67;1.80;;;;;;;17.23;86.49;100572.19;4187150;28;20559;-64
2022/07/03 04:13:49;;;;;;;7.53;1.77;;;;;;;17.25;85.18;100579.06;4191044;28;20592;-64
2022/07/03 04:16:15;;;;;;;7.90;1.70;;;;;;;17.32;85.33;100587.22;4185940;28;20233;-64
2022/07/03 04:18:42;;;;;;;6.13;1.73;;;;;;;17.37;85.53;100592.03;4201103;28;20371;-65
2022/07/03 04:21:09;;;;;;;4.00;1.30;;;;;;;17.38;84.74;100583.78;4202913;28;20224;-64
2022/07/03 04:23:35;;;;;;;8.27;2.10;;;;;;;17.51;84.71;100580.44;4210539;28;20605;-65
2022/07/03 04:26:05;;;;;;;2.90;1.30;;;;;;;17.55;83.74;100580.91;4207630;28;22503;-64
2022/07/03 04:28:35;;;;;;;7.03;1.57;;;;;;;17.56;83.32;100583.44;4200577;28;20327;-64
2022/07/03 04:31:02;;;;;;;4.03;1.60;;;;;;;17.47;84.70;100577.31;4201945;28;20542;-65
2022/07/03 04:33:28;;;;;;;3.97;1.90;;;;;;;17.56;84.99;100579.88;4197130;28;20253;-64
2022/07/03 04:35:55;;;;;;;7.63;1.97;;;;;;;17.61;84.59;100578.31;4203081;28;20623;-63
2022/07/03 04:38:21;;;;;;;14.43;2.47;;;;;;;17.46;85.16;100570.22;4203159;28;20239;-65
2022/07/03 04:40:48;;;;;;;13.97;2.70;;;;;;;17.46;84.44;100574.78;4197590;28;20314;-64
2022/07/03 04:43:18;;;;;;;10.87;2.60;;;;;;;17.54;84.40;100566.63;4196141;28;20401;-64
2022/07/03 04:45:44;;;;;;;7.47;2.20;;;;;;;17.63;83.92;100570.88;4212509;28;22886;-63
2022/07/03 04:48:11;;;;;;;10.27;2.70;;;;;;;17.73;83.83;100568.72;4203796;28;20240;-63
2022/07/03 04:50:37;;;;;;;9.97;3.20;;;;;;;17.82;82.04;100568.66;4199515;28;21351;-66
2022/07/03 04:53:05;;;;;;;11.60;3.47;;;;;;;17.85;80.85;100565.59;4198509;28;20291;-63
2022/07/03 04:55:31;;;;;;;7.47;2.57;;;;;;;17.99;80.56;100566.56;4209666;28;20222;-63
2022/07/03 04:57:58;;;;;;;10.83;2.80;;;;;;;18.04;79.25;100562.28;4195891;28;20535;-63
2022/07/03 05:00:25;;;;;;;9.03;2.40;;;;;;;18.02;79.30;100569.69;4207089;28;20256;-66
2022/07/03 05:02:51;;;;;;;7.47;2.37;;;;;;;18.05;78.14;100568.47;4211753;28;21101;-64
2022/07/03 05:05:18;;;;;;;6.73;2.20;;;;;;;18.16;77.07;100575.25;4194415;28;20387;-63
2022/07/03 05:07:45;;;;;;;5.20;1.90;;;;;;;18.18;77.43;100567.81;4204665;28;20305;-63
2022/07/03 05:10:11;;;;;;;9.97;1.70;;;;;;;18.29;75.66;100568.13;4212445;28;20244;-65
2022/07/03 05:12:38;;;;;;;8.77;1.27;;;;;;;18.35;76.55;100577.28;4214964;28;20236;-63
2022/07/03 05:15:08;;;;;;;5.93;1.67;;;;;;;18.34;76.28;100573.78;4205419;28;20328;-63
2022/07/03 05:17:34;;;;;;;5.10;1.60;;;;;;;18.58;74.78;100585.19;4211455;28;20343;-66
2022/07/03 05:22:49;;;;;;;6.23;1.10;;;;;;;19.00;69.76;100588.88;4206728;28;20231;-63
2022/07/03 05:25:15;;;;;;;2.93;0.83;;;;;;;19.10;69.15;100594.75;4222915;28;20260;-64
2022/07/03 05:27:42;;;;;;;3.53;0.90;;;;;;;19.30;67.23;100594.88;4217004;28;20380;-65
2022/07/03 05:30:09;;;;;;;5.30;1.00;;;;;;;19.66;66.09;100596.50;4206691;28;20232;-67
2022/07/03 05:32:36;;;;;;;5.10;1.07;;;;;;;20.04;65.88;100590.66;4202865;28;20329;-63
2022/07/03 05:35:03;;;;;;;4.90;1.20;;;;;;;20.54;62.62;100595.78;4202191;28;20241;-65
2022/07/03 05:37:30;;;;;;;3.23;1.00;;;;;;;21.10;60.51;100594.53;4203698;28;21218;-65
2022/07/03 05:39:57;;;;;;;4.40;1.07;;;;;;;21.27;55.10;100585.75;4201390;28;20256;-64
2022/07/03 05:42:23;;;;;;;3.63;1.10;;;;;;;21.38;55.94;100591.56;4195344;28;21286;-62
2022/07/03 05:44:50;;;;;;;5.80;1.00;;;;;;;21.84;53.57;100587.88;4205209;28;22744;-63
2022/07/03 05:47:16;;;;;;;3.40;0.87;;;;;;;22.15;52.41;100578.97;4192405;28;20243;-64
2022/07/03 05:49:43;;;;;;;6.40;1.00;;;;;;;22.55;51.87;100586.88;4208580;28;20239;-62
2022/07/03 05:52:10;;;;;;;3.33;0.90;;;;;;;22.92;50.81;100592.38;4209478;28;20303;-66
2022/07/03 05:54:37;;;;;;;4.87;1.20;;;;;;;22.94;48.97;100590.28;4209761;28;20301;-66
2022/07/03 05:57:04;;;;;;;9.13;1.20;;;;;;;23.16;48.73;100591.56;4206572;28;20551;-64
2022/07/03 05:59:31;;;;;;;3.60;1.00;;;;;;;23.72;47.45;100594.31;4221619;28;21379;-66
2022/07/03 06:01:57;;;;;;;5.23;1.20;;;;;;;24.09;46.91;100596.97;4206716;28;20235;-63
2022/07/03 06:04:24;;;;;;;6.00;1.30;;;;;;;24.80;43.59;100604.31;4204888;28;21798;-64
2022/07/03 06:06:51;;;;;;;5.17;1.10;;;;;;;25.69;41.09;100606.88;4208650;28;20346;-64
2022/07/03 06:09:17;;;;;;;6.33;0.90;;;;;;;26.13;39.90;100608.28;4201243;28;22105;-65
2022/07/03 06:11:44;;;;;;;5.27;1.13;;;;;;;26.88;36.97;100610.75;4201005;28;20597;-63
2022/07/03 06:14:10;;;;;;;4.13;0.90;;;;;;;27.29;35.87;100619.56;4200181;28;20237;-65
2022/07/03 06:16:37;;;;;;;4.20;1.07;;;;;;;27.82;34.75;100627.38;4213999;28;20236;-63
2022/07/03 06:19:04;;;;;;;2.13;0.97;;;;;;;27.62;33.55;100628.75;4201725;28;20584;-65
2022/07/03 06:21:30;;;;;;;4.47;0.80;;;;;;;27.65;33.18;100627.41;4208715;28;20232;-63
2022/07/03 06:23:57;;;;;;;3.00;0.90;;;;;;;28.18;33.32;100637.66;4216867;28;23037;-64
2022/07/03 06:26:24;;;;;;;2.70;0.80;;;;;;;27.98;31.31;100643.75;4206108;28;25016;-64
2022/07/03 06:28:51;;;;;;;7.60;1.00;;;;;;;28.03;30.86;100634.75;4205993;28;21926;-63
2022/07/03 06:31:18;;;;;;;1.63;0.67;;;;;;;28.15;29.90;100623.69;4210364;28;20229;-63
2022/07/03 06:33:44;;;;;;;3.60;1.00;;;;;;;28.38;29.59;100628.84;4213950;28;20240;-63
2022/07/03 06:36:11;;;;;;;4.20;0.70;;;;;;;28.53;29.58;100633.66;4189114;28;23347;-65
2022/07/03 06:38:37;;;;;;;2.97;0.70;;;;;;;28.31;29.14;100635.63;4198990;28;20232;-66
2022/07/03 06:41:04;;;;;;;2.57;0.80;;;;;;;29.17;27.46;100627.34;4210538;28;20256;-62
2022/07/03 06:43:31;;;;;;;2.60;0.80;;;;;;;29.75;26.93;100640.28;4205759;28;21984;-64
2022/07/03 06:45:57;;;;;;;2.67;1.00;;;;;;;30.01;27.05;100631.06;4202539;28;20228;-62
2022/07/03 06:48:24;;;;;;;4.80;0.67;;;;;;;29.70;26.78;100630.13;4209998;28;20239;-64
2022/07/03 06:50:50;;;;;;;5.07;0.70;;;;;;;30.00;25.76;100645.06;4209622;28;20233;-63
2022/07/03 06:53:17;;;;;;;4.83;0.70;;;;;;;29.57;26.25;100634.16;4201631;28;20232;-63
2022/07/03 06:55:43;;;;;;;6.40;0.80;;;;;;;30.15;25.90;100636.03;4221493;28;20279;-63
2022/07/03 06:58:10;;;;;;;7.80;0.70;;;;;;;30.45;25.68;100629.81;4212407;28;20487;-62
2022/07/03 07:00:38;;;;;;;3.97;0.70;;;;;;;31.39;24.83;100627.56;4202032;28;20229;-63
2022/07/03 07:03:05;;;;;;;2.67;0.70;;;;;;;31.30;24.10;100626.47;4190733;28;20241;-64
2022/07/03 07:05:31;;;;;;;4.72;0.80;;;;;;;31.10;24.48;100602.63;4214866;28;20895;-67
2022/07/03 07:07:58;;;;;;;6.40;0.63;;;;;;;30.95;24.50;100595.19;4195486;28;20917;-68
2022/07/03 07:10:24;;;;;;;1.97;0.70;;;;;;;31.43;24.88;100598.44;4209802;28;22258;-65
2022/07/03 07:12:51;;;;;;;2.58;0.60;;;;;;;31.73;24.61;100604.91;4212824;28;25763;-62
2022/07/03 07:15:18;;;;;;;2.77;0.70;;;;;;;32.11;24.01;100600.59;4194290;28;20250;-62
2022/07/03 07:17:44;;;;;;;3.28;0.75;;;;;;;31.74;22.78;100607.38;4198207;28;21169;-68
2022/07/03 07:20:11;;;;;;;2.20;0.60;;;;;;;30.63;24.05;100584.50;4194937;28;20236;-67
2022/07/03 07:22:37;;;;;;;2.03;0.83;;;;;;;29.32;25.67;100580.00;4205198;28;20232;-62
2022/07/03 07:25:05;;;;;;;2.73;0.53;;;;;;;27.22;27.93;100567.00;4199285;28;20334;-64
2022/07/03 07:27:32;;;;;;;3.73;0.67;;;;;;;26.11;30.24;100559.44;4197900;28;22979;-63
2022/07/03 07:29:58;;;;;;;2.07;0.60;;;;;;;25.65;31.17;100550.34;4204312;28;20618;-61
2022/07/03 07:32:25;;;;;;;4.83;0.90;;;;;;;25.19;32.78;100547.50;4213592;28;20247;-63
2022/07/03 07:34:52;;;;;;;3.67;0.77;;;;;;;24.74;33.83;100544.53;4202909;28;20250;-64
2022/07/03 07:37:18;;;;;;;4.87;0.90;;;;;;;24.17;34.90;100534.13;4211130;28;20806;-62
2022/07/03 07:39:45;;;;;;;2.67;0.77;;;;;;;24.41;35.56;100535.81;4208067;28;20606;-63
2022/07/03 07:42:13;;;;;;;8.10;0.70;;;;;;;24.57;34.60;100541.69;4195887;28;20905;-64
2022/07/03 07:44:39;;;;;;;2.37;0.90;;;;;;;24.43;35.58;100528.25;4202336;28;21774;-64
2022/07/03 07:47:06;;;;;;;3.07;0.80;;;;;;;24.91;35.34;100528.31;4201484;28;20362;-67
2022/07/03 07:49:32;;;;;;;4.53;0.83;;;;;;;25.46;34.81;100530.63;4198418;28;20240;-67
2022/07/03 07:51:59;;;;;;;3.70;0.60;;;;;;;25.16;35.36;100530.78;4187227;28;20237;-67
2022/07/03 07:54:25;;;;;;;2.63;0.60;;;;;;;24.98;35.99;100534.47;4209293;28;20635;-65
2022/07/03 07:56:52;;;;;;;2.63;0.73;;;;;;;25.35;33.23;100534.19;4202295;28;20247;-67
2022/07/03 07:59:19;;;;;;;2.13;0.63;;;;;;;25.30;32.74;100532.19;4194380;28;22347;-65
2022/07/03 08:07:32;;;;;;;2.77;1.00;;;;;;;25.92;34.01;100531.56;4139407;29;20242;-70
2022/07/03 08:09:58;;;;;;;1.93;0.80;;;;;;;25.36;33.99;100524.97;4179830;28;21048;-65
2022/07/03 08:12:25;;;;;;;5.77;0.97;;;;;;;25.22;36.28;100519.78;4198005;28;20229;-63
2022/07/03 08:14:51;;;;;;;1.87;0.80;;;;;;;25.39;37.61;100519.03;4208530;28;20240;-64
2022/07/03 08:17:18;;;;;;;2.40;0.80;;;;;;;25.41;36.34;100522.34;4212797;28;20309;-65
2022/07/03 08:19:45;;;;;;;7.00;0.90;;;;;;;25.53;35.55;100525.88;4227126;28;20243;-65
2022/07/03 08:22:12;;;;;;;5.47;1.00;;;;;;;25.71;35.75;100522.13;4201909;28;20229;-66
2022/07/03 08:24:39;;;;;;;2.67;0.77;;;;;;;25.56;35.94;100514.47;4217458;28;20326;-64
2022/07/03 08:27:10;;;;;;;2.53;0.80;;;;;;;25.30;36.72;100515.84;4227130;28;20232;-63
2022/07/03 08:29:37;;;;;;;6.40;1.03;;;;;;;25.42;36.53;100513.91;4204605;28;20230;-64
2022/07/03 08:32:04;;;;;;;2.27;0.67;;;;;;;25.28;36.89;100509.81;4208487;28;20236;-66
2022/07/03 08:34:31;;;;;;;3.57;0.90;;;;;;;25.27;36.45;100511.72;4252483;28;20247;-65
2022/07/03 08:36:58;;;;;;;3.03;0.83;;;;;;;25.27;37.73;100509.00;4220342;28;20510;-65
2022/07/03 08:39:25;;;;;;;3.67;0.90;;;;;;;25.41;38.01;100500.56;4218017;28;21664;-66
2022/07/03 08:41:52;;;;;;;2.80;1.00;;;;;;;25.19;36.35;100503.09;4215538;28;22760;-70
2022/07/03 08:44:20;;;;;;;3.77;0.73;;;;;;;25.38;35.93;100501.88;4203303;28;20270;-66
2022/07/03 08:46:48;;;;;;;2.77;0.77;;;;;;;25.31;36.15;100493.00;4254691;28;20231;-66
2022/07/03 08:49:16;;;;;;;4.17;0.90;;;;;;;25.69;36.48;100486.94;4230290;28;21337;-66
2022/07/03 08:51:45;;;;;;;2.70;0.63;;;;;;;25.60;35.95;100488.41;4200541;28;20237;-69
2022/07/03 08:54:11;;;;;;;2.73;0.70;;;;;;;25.53;35.71;100495.06;4209778;28;20262;-65
2022/07/03 08:56:39;;;;;;;4.60;1.00;;;;;;;25.39;36.48;100491.78;4231067;28;20442;-63
2022/07/03 08:59:07;;;;;;;6.07;1.10;;;;;;;25.18;35.61;100485.91;4189872;28;20239;-65
2022/07/03 09:01:35;;;;;;;2.67;0.87;;;;;;;25.06;36.31;100485.91;4204630;28;21545;-66
2022/07/03 09:04:14;;;;;;;2.63;0.80;;;;;;;25.20;36.00;100486.50;4213961;28;20612;-68
2022/07/03 09:06:42;;;;;;;1.97;0.70;;;;;;;24.66;37.67;100477.69;4205512;28;20479;-67
2022/07/03 09:09:09;;;;;;;3.37;0.70;;;;;;;24.86;36.98;100477.28;4207243;28;21709;-67
2022/07/03 09:11:39;;;;;;;5.83;0.80;;;;;;;24.62;37.53;100477.31;4187940;28;21154;-42
2022/07/03 09:14:08;;;;;;;2.37;0.87;;;;;;;24.62;36.80;100474.59;4185178;28;20232;-43
2022/07/03 09:16:35;;;;;;;2.10;0.63;;;;;;;24.56;36.11;100477.44;4201458;28;21746;-47
2022/07/03 09:19:05;;;;;;;3.80;0.80;;;;;;;24.20;36.84;100471.09;4187214;28;20477;-43
2022/07/03 09:21:40;;;;;;;3.17;0.77;;;;;;;24.20;38.15;100473.81;4166607;28;22101;-45
2022/07/03 09:24:09;;;;;;;1.67;0.80;;;;;;;23.74;36.87;100468.06;4190398;28;25008;-46
2022/07/03 09:26:50;;;;;;;1.33;0.70;;;;;;;23.86;37.73;100462.66;4201320;28;20283;-45
2022/07/03 09:29:17;;;;;;;2.23;0.90;;;;;;;24.23;36.92;100473.34;4195897;28;20240;-45
2022/07/03 09:31:53;;;;;;;3.07;0.90;;;;;;;24.52;37.03;100468.09;4198820;28;20279;-46
2022/07/03 09:34:21;;;;;;;1.47;0.80;;;;;;;24.32;35.93;100465.69;4196078;28;21547;-42
2022/07/03 09:36:50;;;;;;;4.30;0.80;;;;;;;24.27;34.19;100474.53;4204867;28;20236;-65
2022/07/03 09:39:24;;;;;;;4.97;0.80;;;;;;;23.99;34.07;100472.47;4191628;28;20472;-66
2022/07/03 09:41:56;;;;;;;4.57;0.70;;;;;;;23.88;34.99;100471.41;4196110;28;20227;-68
2022/07/03 09:44:29;;;;;;;1.83;0.60;;;;;;;23.98;35.23;100466.22;4205891;28;20221;-65
2022/07/03 09:47:25;;;;;;;1.60;0.80;;;;;;;23.83;36.19;100462.28;4164264;28;20229;-62
2022/07/03 09:50:02;;;;;;;2.57;1.00;;;;;;;23.82;37.24;100456.03;4193436;28;20349;-66
2022/07/03 09:52:39;;;;;;;6.77;1.00;;;;;;;24.18;37.16;100454.19;4186636;28;20224;-65
2022/07/03 09:55:06;;;;;;;2.20;0.90;;;;;;;24.19;38.24;100453.16;4201778;28;20240;-69
2022/07/03 09:57:32;;;;;;;2.73;0.80;;;;;;;24.30;38.01;100462.38;4200438;28;20267;-70
2022/07/03 10:00:12;;;;;;;1.97;0.97;;;;;;;24.36;38.87;100447.84;4221689;28;20237;-69
2022/07/03 10:03:01;;;;;;;5.47;1.00;;;;;;;24.41;37.50;100456.13;4202231;28;26657;-72
2022/07/03 10:05:33;;;;;;;3.93;1.10;;;;;;;24.20;38.05;100447.47;4205864;28;20316;-70
2022/07/03 10:08:02;;;;;;;3.83;1.10;;;;;;;24.12;38.56;100445.09;4210543;28;20292;-70
2022/07/03 10:10:31;;;;;;;4.57;0.90;;;;;;;23.90;40.01;100436.66;4204577;28;20255;-64
2022/07/03 10:12:58;;;;;;;2.40;0.97;;;;;;;24.07;39.47;100441.41;4189058;28;21231;-64
2022/07/03 10:15:27;;;;;;;4.30;1.20;;;;;;;23.94;39.88;100437.03;4205730;28;20880;-66
2022/07/03 10:17:56;;;;;;;3.70;1.00;;;;;;;24.19;40.53;100431.41;4206951;28;21491;-64
2022/07/03 10:20:27;;;;;;;5.17;1.10;;;;;;;24.29;37.88;100437.06;4181123;28;20270;-63
2022/07/03 10:22:54;;;;;;;2.17;1.00;;;;;;;24.34;38.23;100437.19;4200044;28;21744;-63
2022/07/03 10:25:21;;;;;;;3.50;1.00;;;;;;;23.87;38.65;100431.69;4188799;28;20458;-65
2022/07/03 10:27:48;;;;;;;4.13;1.23;;;;;;;23.78;39.37;100424.94;4183718;28;20295;-65
2022/07/03 10:30:17;;;;;;;7.37;1.20;;;;;;;23.86;40.86;100419.16;4194291;28;22905;-66
2022/07/03 10:32:45;;;;;;;2.60;1.07;;;;;;;24.22;41.02;100414.59;4208807;28;20235;-65
2022/07/03 10:35:14;;;;;;;4.83;1.27;;;;;;;24.31;41.19;100413.19;4202432;28;20302;-64
2022/07/03 10:37:58;;;;;;;4.43;1.07;;;;;;;24.41;41.00;100410.69;4195768;28;20422;-65
2022/07/03 10:46:29;;;;;;;2.50;0.90;;;;;;;24.58;41.35;100415.44;4199728;28;20240;-66
2022/07/03 10:49:10;;;;;;;2.80;0.90;;;;;;;24.79;39.60;100409.38;4201115;28;20283;-63
2022/07/03 10:51:48;;;;;;;3.33;1.10;;;;;;;24.63;38.15;100407.38;4195437;28;20440;-66
2022/07/03 10:54:17;;;;;;;5.03;0.93;;;;;;;24.61;38.81;100402.19;4199177;28;20236;-65
2022/07/03 10:57:00;;;;;;;4.70;0.80;;;;;;;24.58;38.96;100404.56;4207782;28;20848;-65
2022/07/03 10:59:52;;;;;;;6.00;1.07;;;;;;;24.78;39.64;100405.00;4185157;28;22290;-67
2022/07/03 11:02:31;;;;;;;7.27;1.13;;;;;;;24.92;40.61;100388.41;4184188;28;21293;-64
2022/07/03 11:05:00;;;;;;;3.70;0.87;;;;;;;25.06;39.82;100390.63;4205612;28;20323;-68
2022/07/03 11:07:31;;;;;;;3.63;0.80;;;;;;;25.43;40.04;100389.44;4193801;28;20362;-67
2022/07/03 11:10:10;;;;;;;4.53;1.17;;;;;;;25.30;37.66;100392.44;4180492;28;20433;-68
2022/07/03 11:12:58;;;;;;;4.63;1.10;;;;;;;25.00;39.45;100388.84;4194999;28;20232;-70
2022/07/03 11:15:26;;;;;;;3.33;1.00;;;;;;;25.01;38.56;100373.34;4198619;28;20832;-66
2022/07/03 11:18:05;;;;;;;3.37;0.90;;;;;;;24.68;40.27;100383.03;4193232;28;20357;-66
2022/07/03 11:20:36;;;;;;;1.83;0.83;;;;;;;24.66;39.69;100376.19;4192784;28;20394;-61
2022/07/03 11:23:09;;;;;;;2.30;0.80;;;;;;;24.68;39.03;100380.31;4181356;28;20729;-63
2022/07/03 11:25:40;;;;;;;3.23;1.00;;;;;;;24.43;39.55;100369.66;4190261;28;20407;-64
2022/07/03 11:28:06;;;;;;;2.17;0.90;;;;;;;24.60;40.33;100356.19;4166959;28;20240;-67
2022/07/03 11:31:08;;;;;;;3.23;1.00;;;;;;;24.68;40.76;100365.84;4204174;28;20564;-65
2022/07/03 11:33:54;;;;;;;3.83;1.23;;;;;;;24.79;39.94;100368.53;4195718;28;20293;-65
2022/07/03 11:36:25;;;;;;;5.07;1.20;;;;;;;24.81;41.25;100363.69;4186894;28;20239;-66
2022/07/03 11:38:54;;;;;;;3.07;0.97;;;;;;;25.05;39.82;100355.44;4214157;28;22141;-64
2022/07/03 11:41:22;;;;;;;3.67;1.07;;;;;;;25.30;38.76;100363.31;4194711;28;20249;-65
2022/07/03 11:43:53;;;;;;;3.13;0.93;;;;;;;25.34;38.74;100358.22;4187422;28;20261;-64
2022/07/03 11:46:22;;;;;;;8.20;1.53;;;;;;;25.30;39.02;100359.75;4180859;28;20656;-64
2022/07/03 11:48:49;;;;;;;3.03;1.33;;;;;;;25.46;38.57;100356.25;4200276;28;20240;-64
2022/07/03 11:51:16;;;;;;;4.10;1.30;;;;;;;25.23;38.61;100352.56;4177185;28;22880;-64